sensor_id;sensor_type;location;lat;lon;timestamp;P1;durP1;ratioP1;P2;durP2;ratioP2
10416;SDS011;62605;49.432;8.680;2022-12-29T00:01:42;3.10;;;1.20;;
10416;SDS011;62605;49.432;8.680;2022-12-29T00:04:09;2.37;;;1.07;;
10416;SDS011;62605;49.432;8.680;2022-12-29T00:06:38;3.10;;;1.30;;
10416;SDS011;62605;49.432;8.680;2022-12-29T00:09:06;1.17;;;0.90;;
10416;SDS011;62605;49.432;8.680;2022-12-29T00:11:34;2.40;;;1.27;;
10416;SDS011;62605;49.432;8.680;2022-12-29T00:14:01;2.50;;;1.07;;
10416;SDS011;62605;49.432;8.680;2022-12-29T00:16:46;1.20;;;1.10;;
10416;SDS011;62605;49.432;8.680;2022-12-29T00:19:13;1.53;;;1.10;;
10416;SDS011;62605;49.432;8.680;2022-12-29T00:21:54;1.27;;;1.00;;
10416;SDS011;62605;49.432;8.680;2022-12-29T00:24:41;1.23;;;1.13;;
10416;SDS011;62605;49.432;8.680;2022-12-29T00:27:27;1.60;;;1.27;;
10416;SDS011;62605;49.432;8.680;2022-12-29T00:30:13;1.23;;;1.10;;
10416;SDS011;62605;49.432;8.680;2022-12-29T00:33:00;1.00;;;0.83;;
10416;SDS011;62605;49.432;8.680;2022-12-29T00:35:52;1.10;;;1.00;;
10416;SDS011;62605;49.432;8.680;2022-12-29T00:38:21;2.50;;;1.23;;
10416;SDS011;62605;49.432;8.680;2022-12-29T00:41:06;1.13;;;1.00;;
10416;SDS011;62605;49.432;8.680;2022-12-29T00:43:51;1.13;;;1.00;;
10416;SDS011;62605;49.432;8.680;2022-12-29T00:46:35;1.10;;;1.00;;
10416;SDS011;62605;49.432;8.680;2022-12-29T00:49:03;1.93;;;1.10;;
10416;SDS011;62605;49.432;8.680;2022-12-29T00:51:48;1.40;;;0.93;;
10416;SDS011;62605;49.432;8.680;2022-12-29T00:54:16;1.40;;;1.10;;
10416;SDS011;62605;49.432;8.680;2022-12-29T00:56:45;1.33;;;1.10;;
10416;SDS011;62605;49.432;8.680;2022-12-29T00:59:15;1.27;;;0.93;;
10416;SDS011;62605;49.432;8.680;2022-12-29T01:01:43;1.23;;;1.00;;
10416;SDS011;62605;49.432;8.680;2022-12-29T01:04:11;2.03;;;1.10;;
10416;SDS011;62605;49.432;8.680;2022-12-29T01:06:40;1.13;;;1.03;;
10416;SDS011;62605;49.432;8.680;2022-12-29T01:09:08;5.93;;;1.30;;
10416;SDS011;62605;49.432;8.680;2022-12-29T01:11:53;1.97;;;1.40;;
10416;SDS011;62605;49.432;8.680;2022-12-29T01:14:22;1.00;;;1.00;;
10416;SDS011;62605;49.432;8.680;2022-12-29T01:16:51;3.00;;;1.00;;
10416;SDS011;62605;49.432;8.680;2022-12-29T01:19:18;1.30;;;1.20;;
10416;SDS011;62605;49.432;8.680;2022-12-29T01:21:46;3.20;;;1.10;;
10416;SDS011;62605;49.432;8.680;2022-12-29T01:24:13;2.17;;;1.30;;
10416;SDS011;62605;49.432;8.680;2022-12-29T01:26:42;2.57;;;1.30;;
10416;SDS011;62605;49.432;8.680;2022-12-29T01:29:09;2.17;;;1.30;;
10416;SDS011;62605;49.432;8.680;2022-12-29T01:31:38;0.97;;;0.97;;
10416;SDS011;62605;49.432;8.680;2022-12-29T01:34:05;1.30;;;0.90;;
10416;SDS011;62605;49.432;8.680;2022-12-29T01:36:33;1.30;;;1.10;;
10416;SDS011;62605;49.432;8.680;2022-12-29T01:39:00;1.37;;;1.10;;
10416;SDS011;62605;49.432;8.680;2022-12-29T01:41:28;0.97;;;0.90;;
10416;SDS011;62605;49.432;8.680;2022-12-29T01:43:57;2.00;;;1.00;;
10416;SDS011;62605;49.432;8.680;2022-12-29T01:46:26;3.10;;;0.80;;
10416;SDS011;62605;49.432;8.680;2022-12-29T01:48:59;0.73;;;0.67;;
10416;SDS011;62605;49.432;8.680;2022-12-29T01:51:37;0.97;;;0.80;;
10416;SDS011;62605;49.432;8.680;2022-12-29T01:54:08;0.50;;;0.50;;
10416;SDS011;62605;49.432;8.680;2022-12-29T01:56:39;0.77;;;0.70;;
10416;SDS011;62605;49.432;8.680;2022-12-29T01:59:07;0.63;;;0.63;;
10416;SDS011;62605;49.432;8.680;2022-12-29T02:01:39;1.63;;;0.90;;
10416;SDS011;62605;49.432;8.680;2022-12-29T02:04:08;3.47;;;0.93;;
10416;SDS011;62605;49.432;8.680;2022-12-29T02:06:39;0.83;;;0.83;;
10416;SDS011;62605;49.432;8.680;2022-12-29T02:09:12;0.73;;;0.63;;
10416;SDS011;62605;49.432;8.680;2022-12-29T02:11:39;0.80;;;0.77;;
10416;SDS011;62605;49.432;8.680;2022-12-29T02:14:08;2.93;;;1.07;;
10416;SDS011;62605;49.432;8.680;2022-12-29T02:16:40;0.60;;;0.60;;
10416;SDS011;62605;49.432;8.680;2022-12-29T02:22:33;0.73;;;0.57;;
10416;SDS011;62605;49.432;8.680;2022-12-29T02:31:20;1.27;;;0.73;;
10416;SDS011;62605;49.432;8.680;2022-12-29T02:33:57;1.00;;;0.90;;
10416;SDS011;62605;49.432;8.680;2022-12-29T02:36:37;0.83;;;0.80;;
10416;SDS011;62605;49.432;8.680;2022-12-29T02:39:12;3.30;;;0.97;;
10416;SDS011;62605;49.432;8.680;2022-12-29T02:41:48;0.83;;;0.83;;
10416;SDS011;62605;49.432;8.680;2022-12-29T02:44:23;1.53;;;0.90;;
10416;SDS011;62605;49.432;8.680;2022-12-29T02:46:58;1.23;;;1.13;;
10416;SDS011;62605;49.432;8.680;2022-12-29T02:49:31;0.90;;;0.83;;
10416;SDS011;62605;49.432;8.680;2022-12-29T02:52:03;1.60;;;0.77;;
10416;SDS011;62605;49.432;8.680;2022-12-29T02:54:34;1.13;;;1.03;;
10416;SDS011;62605;49.432;8.680;2022-12-29T02:57:08;0.93;;;0.80;;
10416;SDS011;62605;49.432;8.680;2022-12-29T02:59:37;1.40;;;1.07;;
10416;SDS011;62605;49.432;8.680;2022-12-29T03:02:13;1.23;;;0.83;;
10416;SDS011;62605;49.432;8.680;2022-12-29T03:08:11;0.93;;;0.87;;
10416;SDS011;62605;49.432;8.680;2022-12-29T03:10:48;2.00;;;0.80;;
10416;SDS011;62605;49.432;8.680;2022-12-29T03:13:21;1.63;;;0.83;;
10416;SDS011;62605;49.432;8.680;2022-12-29T03:16:12;0.93;;;0.60;;
10416;SDS011;62605;49.432;8.680;2022-12-29T03:18:49;0.83;;;0.83;;
10416;SDS011;62605;49.432;8.680;2022-12-29T03:21:26;1.67;;;0.80;;
10416;SDS011;62605;49.432;8.680;2022-12-29T03:24:12;0.60;;;0.60;;
10416;SDS011;62605;49.432;8.680;2022-12-29T03:26:40;0.83;;;0.80;;
10416;SDS011;62605;49.432;8.680;2022-12-29T03:29:08;1.07;;;1.00;;
10416;SDS011;62605;49.432;8.680;2022-12-29T03:31:36;2.27;;;0.73;;
10416;SDS011;62605;49.432;8.680;2022-12-29T03:34:06;2.93;;;0.70;;
10416;SDS011;62605;49.432;8.680;2022-12-29T03:36:36;1.47;;;0.90;;
10416;SDS011;62605;49.432;8.680;2022-12-29T03:39:09;0.93;;;0.93;;
10416;SDS011;62605;49.432;8.680;2022-12-29T03:41:39;1.00;;;0.90;;
10416;SDS011;62605;49.432;8.680;2022-12-29T03:44:09;0.60;;;0.60;;
10416;SDS011;62605;49.432;8.680;2022-12-29T03:46:37;0.93;;;0.70;;
10416;SDS011;62605;49.432;8.680;2022-12-29T03:49:06;1.37;;;1.00;;
10416;SDS011;62605;49.432;8.680;2022-12-29T03:51:33;0.90;;;0.80;;
10416;SDS011;62605;49.432;8.680;2022-12-29T03:54:00;1.40;;;1.10;;
10416;SDS011;62605;49.432;8.680;2022-12-29T03:56:27;1.00;;;0.87;;
10416;SDS011;62605;49.432;8.680;2022-12-29T03:58:54;0.80;;;0.63;;
10416;SDS011;62605;49.432;8.680;2022-12-29T04:01:22;0.90;;;0.80;;
10416;SDS011;62605;49.432;8.680;2022-12-29T04:03:49;0.97;;;0.87;;
10416;SDS011;62605;49.432;8.680;2022-12-29T04:06:18;1.00;;;0.80;;
10416;SDS011;62605;49.432;8.680;2022-12-29T04:08:45;1.57;;;0.97;;
10416;SDS011;62605;49.432;8.680;2022-12-29T04:11:12;0.77;;;0.77;;
10416;SDS011;62605;49.432;8.680;2022-12-29T04:13:39;0.80;;;0.80;;
10416;SDS011;62605;49.432;8.680;2022-12-29T04:16:06;2.47;;;1.17;;
10416;SDS011;62605;49.432;8.680;2022-12-29T04:18:33;2.50;;;0.60;;
10416;SDS011;62605;49.432;8.680;2022-12-29T04:21:00;1.57;;;0.83;;
10416;SDS011;62605;49.432;8.680;2022-12-29T04:23:29;0.80;;;0.80;;
10416;SDS011;62605;49.432;8.680;2022-12-29T04:25:57;0.90;;;0.90;;
10416;SDS011;62605;49.432;8.680;2022-12-29T04:28:24;1.10;;;1.00;;
10416;SDS011;62605;49.432;8.680;2022-12-29T04:30:51;2.63;;;0.77;;
10416;SDS011;62605;49.432;8.680;2022-12-29T04:33:19;0.80;;;0.80;;
10416;SDS011;62605;49.432;8.680;2022-12-29T04:35:47;0.80;;;0.73;;
10416;SDS011;62605;49.432;8.680;2022-12-29T04:38:14;0.70;;;0.70;;
10416;SDS011;62605;49.432;8.680;2022-12-29T04:40:43;1.07;;;0.97;;
10416;SDS011;62605;49.432;8.680;2022-12-29T04:43:10;0.93;;;0.70;;
10416;SDS011;62605;49.432;8.680;2022-12-29T04:45:38;0.97;;;0.90;;
10416;SDS011;62605;49.432;8.680;2022-12-29T04:48:08;0.97;;;0.87;;
10416;SDS011;62605;49.432;8.680;2022-12-29T04:50:37;0.70;;;0.70;;
10416;SDS011;62605;49.432;8.680;2022-12-29T04:53:06;0.60;;;0.60;;
10416;SDS011;62605;49.432;8.680;2022-12-29T04:55:33;2.30;;;0.70;;
10416;SDS011;62605;49.432;8.680;2022-12-29T04:58:01;0.80;;;0.80;;
10416;SDS011;62605;49.432;8.680;2022-12-29T05:00:29;0.83;;;0.67;;
10416;SDS011;62605;49.432;8.680;2022-12-29T05:02:56;0.60;;;0.60;;
10416;SDS011;62605;49.432;8.680;2022-12-29T05:05:23;1.53;;;0.70;;
10416;SDS011;62605;49.432;8.680;2022-12-29T05:07:51;0.93;;;0.90;;
10416;SDS011;62605;49.432;8.680;2022-12-29T05:10:18;2.03;;;1.07;;
10416;SDS011;62605;49.432;8.680;2022-12-29T05:12:45;1.10;;;1.00;;
10416;SDS011;62605;49.432;8.680;2022-12-29T05:15:13;0.70;;;0.70;;
10416;SDS011;62605;49.432;8.680;2022-12-29T05:17:41;2.13;;;1.00;;
10416;SDS011;62605;49.432;8.680;2022-12-29T05:20:08;2.00;;;0.80;;
10416;SDS011;62605;49.432;8.680;2022-12-29T05:22:36;0.60;;;0.60;;
10416;SDS011;62605;49.432;8.680;2022-12-29T05:25:04;0.90;;;0.80;;
10416;SDS011;62605;49.432;8.680;2022-12-29T05:27:32;1.43;;;0.90;;
10416;SDS011;62605;49.432;8.680;2022-12-29T05:29:59;0.80;;;0.80;;
10416;SDS011;62605;49.432;8.680;2022-12-29T05:32:28;1.20;;;0.90;;
10416;SDS011;62605;49.432;8.680;2022-12-29T05:34:55;0.60;;;0.60;;
10416;SDS011;62605;49.432;8.680;2022-12-29T05:37:22;0.80;;;0.67;;
10416;SDS011;62605;49.432;8.680;2022-12-29T05:39:50;0.60;;;0.60;;
10416;SDS011;62605;49.432;8.680;2022-12-29T05:42:19;1.40;;;0.80;;
10416;SDS011;62605;49.432;8.680;2022-12-29T05:44:46;0.77;;;0.77;;
10416;SDS011;62605;49.432;8.680;2022-12-29T05:47:17;0.83;;;0.83;;
10416;SDS011;62605;49.432;8.680;2022-12-29T05:49:46;2.40;;;0.97;;
10416;SDS011;62605;49.432;8.680;2022-12-29T05:52:14;1.37;;;0.73;;
10416;SDS011;62605;49.432;8.680;2022-12-29T05:54:42;1.10;;;1.00;;
10416;SDS011;62605;49.432;8.680;2022-12-29T05:57:09;1.67;;;1.10;;
10416;SDS011;62605;49.432;8.680;2022-12-29T05:59:36;2.37;;;1.00;;
10416;SDS011;62605;49.432;8.680;2022-12-29T06:02:04;0.70;;;0.70;;
10416;SDS011;62605;49.432;8.680;2022-12-29T06:04:32;2.47;;;1.00;;
10416;SDS011;62605;49.432;8.680;2022-12-29T06:07:02;1.47;;;0.87;;
10416;SDS011;62605;49.432;8.680;2022-12-29T06:09:30;1.03;;;0.90;;
10416;SDS011;62605;49.432;8.680;2022-12-29T06:11:57;1.43;;;1.33;;
10416;SDS011;62605;49.432;8.680;2022-12-29T06:14:24;1.00;;;0.83;;
10416;SDS011;62605;49.432;8.680;2022-12-29T06:16:51;1.40;;;1.20;;
10416;SDS011;62605;49.432;8.680;2022-12-29T06:19:18;0.83;;;0.70;;
10416;SDS011;62605;49.432;8.680;2022-12-29T06:21:45;2.53;;;0.87;;
10416;SDS011;62605;49.432;8.680;2022-12-29T06:24:13;1.47;;;1.00;;
10416;SDS011;62605;49.432;8.680;2022-12-29T06:26:40;1.10;;;0.80;;
10416;SDS011;62605;49.432;8.680;2022-12-29T06:29:07;0.80;;;0.80;;
10416;SDS011;62605;49.432;8.680;2022-12-29T06:31:34;1.20;;;1.10;;
10416;SDS011;62605;49.432;8.680;2022-12-29T06:34:02;0.80;;;0.80;;
10416;SDS011;62605;49.432;8.680;2022-12-29T06:36:29;0.90;;;0.90;;
10416;SDS011;62605;49.432;8.680;2022-12-29T06:38:56;0.80;;;0.80;;
10416;SDS011;62605;49.432;8.680;2022-12-29T06:41:25;2.20;;;1.23;;
10416;SDS011;62605;49.432;8.680;2022-12-29T06:43:52;1.17;;;1.07;;
10416;SDS011;62605;49.432;8.680;2022-12-29T06:46:19;0.90;;;0.90;;
10416;SDS011;62605;49.432;8.680;2022-12-29T06:48:46;1.13;;;0.90;;
10416;SDS011;62605;49.432;8.680;2022-12-29T06:51:12;1.20;;;1.00;;
10416;SDS011;62605;49.432;8.680;2022-12-29T06:53:39;1.27;;;1.13;;
10416;SDS011;62605;49.432;8.680;2022-12-29T06:56:06;4.33;;;1.10;;
10416;SDS011;62605;49.432;8.680;2022-12-29T06:58:35;1.67;;;1.00;;
10416;SDS011;62605;49.432;8.680;2022-12-29T07:01:02;1.10;;;1.00;;
10416;SDS011;62605;49.432;8.680;2022-12-29T07:03:30;1.27;;;0.80;;
10416;SDS011;62605;49.432;8.680;2022-12-29T07:05:57;2.07;;;0.80;;
10416;SDS011;62605;49.432;8.680;2022-12-29T07:08:24;1.07;;;0.97;;
10416;SDS011;62605;49.432;8.680;2022-12-29T07:10:51;1.50;;;1.20;;
10416;SDS011;62605;49.432;8.680;2022-12-29T07:13:18;1.17;;;0.90;;
10416;SDS011;62605;49.432;8.680;2022-12-29T07:15:47;2.73;;;1.03;;
10416;SDS011;62605;49.432;8.680;2022-12-29T07:18:14;1.70;;;1.03;;
10416;SDS011;62605;49.432;8.680;2022-12-29T07:20:42;1.07;;;0.97;;
10416;SDS011;62605;49.432;8.680;2022-12-29T07:23:09;2.07;;;1.00;;
10416;SDS011;62605;49.432;8.680;2022-12-29T07:25:37;2.33;;;1.10;;
10416;SDS011;62605;49.432;8.680;2022-12-29T07:28:06;1.33;;;0.97;;
10416;SDS011;62605;49.432;8.680;2022-12-29T07:30:36;1.30;;;1.20;;
10416;SDS011;62605;49.432;8.680;2022-12-29T07:33:05;1.60;;;1.17;;
10416;SDS011;62605;49.432;8.680;2022-12-29T07:35:33;2.30;;;1.37;;
10416;SDS011;62605;49.432;8.680;2022-12-29T07:38:01;1.50;;;1.10;;
10416;SDS011;62605;49.432;8.680;2022-12-29T07:40:28;0.80;;;0.80;;
10416;SDS011;62605;49.432;8.680;2022-12-29T07:42:55;1.57;;;1.10;;
10416;SDS011;62605;49.432;8.680;2022-12-29T07:45:22;1.50;;;1.10;;
10416;SDS011;62605;49.432;8.680;2022-12-29T07:47:50;1.67;;;1.20;;
10416;SDS011;62605;49.432;8.680;2022-12-29T07:50:19;3.40;;;1.13;;
10416;SDS011;62605;49.432;8.680;2022-12-29T07:52:46;0.90;;;0.90;;
10416;SDS011;62605;49.432;8.680;2022-12-29T07:55:13;1.70;;;1.53;;
10416;SDS011;62605;49.432;8.680;2022-12-29T07:57:40;4.20;;;2.47;;
10416;SDS011;62605;49.432;8.680;2022-12-29T08:00:08;3.00;;;2.33;;
10416;SDS011;62605;49.432;8.680;2022-12-29T08:02:35;2.00;;;1.80;;
10416;SDS011;62605;49.432;8.680;2022-12-29T08:05:03;1.93;;;1.20;;
10416;SDS011;62605;49.432;8.680;2022-12-29T08:07:32;2.73;;;1.17;;
10416;SDS011;62605;49.432;8.680;2022-12-29T08:09:59;3.50;;;1.53;;
10416;SDS011;62605;49.432;8.680;2022-12-29T08:12:26;2.90;;;1.63;;
10416;SDS011;62605;49.432;8.680;2022-12-29T08:14:54;2.43;;;1.60;;
10416;SDS011;62605;49.432;8.680;2022-12-29T08:17:21;3.37;;;1.50;;
10416;SDS011;62605;49.432;8.680;2022-12-29T08:19:48;2.53;;;1.40;;
10416;SDS011;62605;49.432;8.680;2022-12-29T08:22:15;3.97;;;1.47;;
10416;SDS011;62605;49.432;8.680;2022-12-29T08:24:44;1.87;;;1.40;;
10416;SDS011;62605;49.432;8.680;2022-12-29T08:27:11;2.07;;;1.53;;
10416;SDS011;62605;49.432;8.680;2022-12-29T08:29:39;2.10;;;1.40;;
10416;SDS011;62605;49.432;8.680;2022-12-29T08:32:06;2.40;;;1.30;;
10416;SDS011;62605;49.432;8.680;2022-12-29T08:34:33;2.17;;;1.50;;
10416;SDS011;62605;49.432;8.680;2022-12-29T08:37:01;1.47;;;1.37;;
10416;SDS011;62605;49.432;8.680;2022-12-29T08:39:28;2.43;;;1.30;;
10416;SDS011;62605;49.432;8.680;2022-12-29T08:41:57;3.10;;;1.63;;
10416;SDS011;62605;49.432;8.680;2022-12-29T08:44:24;4.03;;;1.23;;
10416;SDS011;62605;49.432;8.680;2022-12-29T08:46:51;2.17;;;1.30;;
10416;SDS011;62605;49.432;8.680;2022-12-29T08:49:19;2.30;;;1.33;;
10416;SDS011;62605;49.432;8.680;2022-12-29T08:51:46;4.93;;;1.47;;
10416;SDS011;62605;49.432;8.680;2022-12-29T08:54:13;1.63;;;1.17;;
10416;SDS011;62605;49.432;8.680;2022-12-29T08:56:39;2.87;;;1.60;;
10416;SDS011;62605;49.432;8.680;2022-12-29T08:59:09;2.73;;;1.63;;
10416;SDS011;62605;49.432;8.680;2022-12-29T09:01:36;3.43;;;1.67;;
10416;SDS011;62605;49.432;8.680;2022-12-29T09:04:05;1.27;;;1.17;;
10416;SDS011;62605;49.432;8.680;2022-12-29T09:06:33;1.40;;;1.00;;
10416;SDS011;62605;49.432;8.680;2022-12-29T09:09:01;2.80;;;1.17;;
10416;SDS011;62605;49.432;8.680;2022-12-29T09:11:28;1.67;;;1.40;;
10416;SDS011;62605;49.432;8.680;2022-12-29T09:13:56;2.07;;;1.37;;
10416;SDS011;62605;49.432;8.680;2022-12-29T09:16:24;3.27;;;1.33;;
10416;SDS011;62605;49.432;8.680;2022-12-29T09:18:52;1.57;;;1.10;;
10416;SDS011;62605;49.432;8.680;2022-12-29T09:21:19;3.97;;;1.37;;
10416;SDS011;62605;49.432;8.680;2022-12-29T09:23:46;1.53;;;1.43;;
10416;SDS011;62605;49.432;8.680;2022-12-29T09:26:13;1.70;;;1.10;;
10416;SDS011;62605;49.432;8.680;2022-12-29T09:28:41;0.93;;;0.90;;
10416;SDS011;62605;49.432;8.680;2022-12-29T09:31:09;1.17;;;1.07;;
10416;SDS011;62605;49.432;8.680;2022-12-29T09:33:38;2.53;;;1.23;;
10416;SDS011;62605;49.432;8.680;2022-12-29T09:36:06;2.37;;;1.20;;
10416;SDS011;62605;49.432;8.680;2022-12-29T09:38:35;1.63;;;1.23;;
10416;SDS011;62605;49.432;8.680;2022-12-29T09:41:05;1.90;;;1.30;;
10416;SDS011;62605;49.432;8.680;2022-12-29T09:43:43;1.33;;;1.20;;
10416;SDS011;62605;49.432;8.680;2022-12-29T09:46:18;5.60;;;1.50;;
10416;SDS011;62605;49.432;8.680;2022-12-29T09:48:57;3.13;;;1.50;;
10416;SDS011;62605;49.432;8.680;2022-12-29T09:51:33;1.20;;;1.10;;
10416;SDS011;62605;49.432;8.680;2022-12-29T09:54:04;1.50;;;1.20;;
10416;SDS011;62605;49.432;8.680;2022-12-29T09:56:45;1.83;;;1.30;;
10416;SDS011;62605;49.432;8.680;2022-12-29T09:59:15;1.93;;;1.37;;
10416;SDS011;62605;49.432;8.680;2022-12-29T10:01:46;1.17;;;0.97;;
10416;SDS011;62605;49.432;8.680;2022-12-29T10:04:22;2.10;;;1.20;;
10416;SDS011;62605;49.432;8.680;2022-12-29T10:06:55;1.53;;;1.33;;
10416;SDS011;62605;49.432;8.680;2022-12-29T10:09:29;2.90;;;1.83;;
10416;SDS011;62605;49.432;8.680;2022-12-29T10:12:03;1.10;;;1.10;;
10416;SDS011;62605;49.432;8.680;2022-12-29T10:14:47;1.10;;;1.00;;
10416;SDS011;62605;49.432;8.680;2022-12-29T10:17:26;1.10;;;1.00;;
10416;SDS011;62605;49.432;8.680;2022-12-29T10:22:56;1.60;;;1.03;;
10416;SDS011;62605;49.432;8.680;2022-12-29T10:25:38;3.73;;;1.10;;
10416;SDS011;62605;49.432;8.680;2022-12-29T10:28:14;1.60;;;1.10;;
10416;SDS011;62605;49.432;8.680;2022-12-29T10:30:47;6.33;;;1.17;;
10416;SDS011;62605;49.432;8.680;2022-12-29T10:33:15;1.97;;;1.30;;
10416;SDS011;62605;49.432;8.680;2022-12-29T10:35:57;3.20;;;1.40;;
10416;SDS011;62605;49.432;8.680;2022-12-29T10:38:27;3.63;;;1.17;;
10416;SDS011;62605;49.432;8.680;2022-12-29T10:41:02;1.70;;;1.07;;
10416;SDS011;62605;49.432;8.680;2022-12-29T10:43:40;1.07;;;1.03;;
10416;SDS011;62605;49.432;8.680;2022-12-29T10:46:12;1.13;;;1.03;;
10416;SDS011;62605;49.432;8.680;2022-12-29T10:48:42;2.67;;;1.30;;
10416;SDS011;62605;49.432;8.680;2022-12-29T10:51:15;1.30;;;1.10;;
10416;SDS011;62605;49.432;8.680;2022-12-29T10:53:55;1.27;;;1.17;;
10416;SDS011;62605;49.432;8.680;2022-12-29T10:56:28;4.00;;;1.20;;
10416;SDS011;62605;49.432;8.680;2022-12-29T10:59:01;2.67;;;1.13;;
10416;SDS011;62605;49.432;8.680;2022-12-29T11:01:37;3.07;;;1.20;;
10416;SDS011;62605;49.432;8.680;2022-12-29T11:04:13;3.00;;;1.30;;
10416;SDS011;62605;49.432;8.680;2022-12-29T11:06:54;2.57;;;1.17;;
10416;SDS011;62605;49.432;8.680;2022-12-29T11:09:26;2.13;;;1.03;;
10416;SDS011;62605;49.432;8.680;2022-12-29T11:11:55;1.43;;;0.90;;
10416;SDS011;62605;49.432;8.680;2022-12-29T11:14:26;1.00;;;0.90;;
10416;SDS011;62605;49.432;8.680;2022-12-29T11:16:57;1.10;;;1.00;;
10416;SDS011;62605;49.432;8.680;2022-12-29T11:19:25;2.30;;;1.00;;
10416;SDS011;62605;49.432;8.680;2022-12-29T11:21:57;0.90;;;0.90;;
10416;SDS011;62605;49.432;8.680;2022-12-29T11:24:46;1.17;;;1.05;;
10416;SDS011;62605;49.432;8.680;2022-12-29T11:27:14;1.13;;;0.85;;
10416;SDS011;62605;49.432;8.680;2022-12-29T11:29:44;1.00;;;0.90;;
10416;SDS011;62605;49.432;8.680;2022-12-29T11:32:17;1.65;;;1.10;;
10416;SDS011;62605;49.432;8.680;2022-12-29T11:34:45;1.63;;;0.95;;
10416;SDS011;62605;49.432;8.680;2022-12-29T11:37:18;0.95;;;0.90;;
10416;SDS011;62605;49.432;8.680;2022-12-29T11:39:50;2.30;;;1.10;;
10416;SDS011;62605;49.432;8.680;2022-12-29T11:42:22;1.05;;;0.95;;
10416;SDS011;62605;49.432;8.680;2022-12-29T11:44:56;0.98;;;0.98;;
10416;SDS011;62605;49.432;8.680;2022-12-29T11:47:30;2.38;;;0.80;;
10416;SDS011;62605;49.432;8.680;2022-12-29T11:50:00;0.77;;;0.73;;
10416;SDS011;62605;49.432;8.680;2022-12-29T11:52:33;1.20;;;1.00;;
10416;SDS011;62605;49.432;8.680;2022-12-29T11:55:05;2.27;;;0.77;;
10416;SDS011;62605;49.432;8.680;2022-12-29T11:57:42;1.03;;;0.80;;
10416;SDS011;62605;49.432;8.680;2022-12-29T12:02:57;1.03;;;0.80;;
10416;SDS011;62605;49.432;8.680;2022-12-29T12:05:32;1.30;;;1.17;;
10416;SDS011;62605;49.432;8.680;2022-12-29T12:08:18;1.20;;;0.87;;
10416;SDS011;62605;49.432;8.680;2022-12-29T12:10:56;1.37;;;0.87;;
10416;SDS011;62605;49.432;8.680;2022-12-29T12:13:30;1.30;;;1.00;;
10416;SDS011;62605;49.432;8.680;2022-12-29T12:16:04;1.00;;;0.90;;
10416;SDS011;62605;49.432;8.680;2022-12-29T12:18:40;0.90;;;0.77;;
10416;SDS011;62605;49.432;8.680;2022-12-29T12:21:14;1.60;;;1.00;;
10416;SDS011;62605;49.432;8.680;2022-12-29T12:23:55;0.90;;;0.80;;
10416;SDS011;62605;49.432;8.680;2022-12-29T12:26:32;1.93;;;0.80;;
10416;SDS011;62605;49.432;8.680;2022-12-29T12:29:05;2.73;;;0.73;;
10416;SDS011;62605;49.432;8.680;2022-12-29T12:31:41;1.07;;;0.60;;
10416;SDS011;62605;49.432;8.680;2022-12-29T12:34:15;0.70;;;0.70;;
10416;SDS011;62605;49.432;8.680;2022-12-29T12:36:50;1.20;;;0.50;;
10416;SDS011;62605;49.432;8.680;2022-12-29T12:39:36;0.53;;;0.53;;
10416;SDS011;62605;49.432;8.680;2022-12-29T12:42:16;2.90;;;0.80;;
10416;SDS011;62605;49.432;8.680;2022-12-29T12:44:55;0.70;;;0.53;;
10416;SDS011;62605;49.432;8.680;2022-12-29T12:47:35;2.07;;;0.70;;
10416;SDS011;62605;49.432;8.680;2022-12-29T12:53:21;0.87;;;0.87;;
10416;SDS011;62605;49.432;8.680;2022-12-29T12:56:07;0.67;;;0.67;;
10416;SDS011;62605;49.432;8.680;2022-12-29T12:59:04;1.50;;;0.90;;
10416;SDS011;62605;49.432;8.680;2022-12-29T13:01:42;1.57;;;0.80;;
10416;SDS011;62605;49.432;8.680;2022-12-29T13:04:32;0.97;;;0.80;;
10416;SDS011;62605;49.432;8.680;2022-12-29T13:07:16;0.93;;;0.73;;
10416;SDS011;62605;49.432;8.680;2022-12-29T13:10:01;0.67;;;0.60;;
10416;SDS011;62605;49.432;8.680;2022-12-29T13:12:46;0.87;;;0.80;;
10416;SDS011;62605;49.432;8.680;2022-12-29T13:15:26;0.83;;;0.80;;
10416;SDS011;62605;49.432;8.680;2022-12-29T13:18:07;2.50;;;0.90;;
10416;SDS011;62605;49.432;8.680;2022-12-29T13:20:46;1.07;;;0.60;;
10416;SDS011;62605;49.432;8.680;2022-12-29T13:23:20;0.60;;;0.60;;
10416;SDS011;62605;49.432;8.680;2022-12-29T13:25:55;2.73;;;0.80;;
10416;SDS011;62605;49.432;8.680;2022-12-29T13:28:31;3.03;;;0.70;;
10416;SDS011;62605;49.432;8.680;2022-12-29T13:31:12;0.73;;;0.70;;
10416;SDS011;62605;49.432;8.680;2022-12-29T13:33:49;0.50;;;0.50;;
10416;SDS011;62605;49.432;8.680;2022-12-29T13:36:24;1.77;;;0.70;;
10416;SDS011;62605;49.432;8.680;2022-12-29T13:38:59;3.50;;;0.53;;
10416;SDS011;62605;49.432;8.680;2022-12-29T13:41:32;1.20;;;0.73;;
10416;SDS011;62605;49.432;8.680;2022-12-29T13:44:05;0.73;;;0.63;;
10416;SDS011;62605;49.432;8.680;2022-12-29T13:46:39;1.43;;;0.70;;
10416;SDS011;62605;49.432;8.680;2022-12-29T13:49:11;0.50;;;0.50;;
10416;SDS011;62605;49.432;8.680;2022-12-29T13:51:46;1.57;;;0.87;;
10416;SDS011;62605;49.432;8.680;2022-12-29T13:54:18;0.70;;;0.70;;
10416;SDS011;62605;49.432;8.680;2022-12-29T13:56:56;1.10;;;0.87;;
10416;SDS011;62605;49.432;8.680;2022-12-29T13:59:36;1.33;;;0.70;;
10416;SDS011;62605;49.432;8.680;2022-12-29T14:02:11;2.30;;;1.00;;
10416;SDS011;62605;49.432;8.680;2022-12-29T14:04:58;1.60;;;1.07;;
10416;SDS011;62605;49.432;8.680;2022-12-29T14:07:28;2.83;;;1.30;;
10416;SDS011;62605;49.432;8.680;2022-12-29T14:10:02;3.40;;;1.17;;
10416;SDS011;62605;49.432;8.680;2022-12-29T14:12:31;2.13;;;1.20;;
10416;SDS011;62605;49.432;8.680;2022-12-29T14:15:05;2.63;;;1.00;;
10416;SDS011;62605;49.432;8.680;2022-12-29T14:17:42;1.33;;;0.83;;
10416;SDS011;62605;49.432;8.680;2022-12-29T14:20:17;0.47;;;0.47;;
10416;SDS011;62605;49.432;8.680;2022-12-29T14:22:56;1.67;;;0.53;;
10416;SDS011;62605;49.432;8.680;2022-12-29T14:28:22;0.80;;;0.80;;
10416;SDS011;62605;49.432;8.680;2022-12-29T14:30:53;0.70;;;0.70;;
10416;SDS011;62605;49.432;8.680;2022-12-29T14:33:21;0.57;;;0.50;;
10416;SDS011;62605;49.432;8.680;2022-12-29T14:35:52;0.83;;;0.80;;
10416;SDS011;62605;49.432;8.680;2022-12-29T14:38:21;0.70;;;0.70;;
10416;SDS011;62605;49.432;8.680;2022-12-29T14:40:50;1.87;;;1.20;;
10416;SDS011;62605;49.432;8.680;2022-12-29T14:43:22;1.90;;;0.87;;
10416;SDS011;62605;49.432;8.680;2022-12-29T14:45:55;2.43;;;0.60;;
10416;SDS011;62605;49.432;8.680;2022-12-29T14:48:30;0.87;;;0.43;;
10416;SDS011;62605;49.432;8.680;2022-12-29T14:51:02;0.67;;;0.50;;
10416;SDS011;62605;49.432;8.680;2022-12-29T14:53:46;3.17;;;0.30;;
10416;SDS011;62605;49.432;8.680;2022-12-29T14:56:18;0.57;;;0.47;;
10416;SDS011;62605;49.432;8.680;2022-12-29T14:58:51;3.80;;;0.40;;
10416;SDS011;62605;49.432;8.680;2022-12-29T15:01:24;0.70;;;0.70;;
10416;SDS011;62605;49.432;8.680;2022-12-29T15:04:03;0.40;;;0.40;;
10416;SDS011;62605;49.432;8.680;2022-12-29T15:06:40;1.00;;;0.50;;
10416;SDS011;62605;49.432;8.680;2022-12-29T15:09:12;1.20;;;0.63;;
10416;SDS011;62605;49.432;8.680;2022-12-29T15:11:51;0.73;;;0.57;;
10416;SDS011;62605;49.432;8.680;2022-12-29T15:14:27;0.77;;;0.77;;
10416;SDS011;62605;49.432;8.680;2022-12-29T15:17:22;0.77;;;0.40;;
10416;SDS011;62605;49.432;8.680;2022-12-29T15:19:52;0.83;;;0.60;;
10416;SDS011;62605;49.432;8.680;2022-12-29T15:22:20;2.53;;;0.70;;
10416;SDS011;62605;49.432;8.680;2022-12-29T15:24:50;1.33;;;0.80;;
10416;SDS011;62605;49.432;8.680;2022-12-29T15:27:22;0.83;;;0.67;;
10416;SDS011;62605;49.432;8.680;2022-12-29T15:29:55;3.63;;;1.60;;
10416;SDS011;62605;49.432;8.680;2022-12-29T15:32:29;2.80;;;1.57;;
10416;SDS011;62605;49.432;8.680;2022-12-29T15:35:20;1.50;;;1.40;;
10416;SDS011;62605;49.432;8.680;2022-12-29T15:37:54;2.63;;;1.53;;
10416;SDS011;62605;49.432;8.680;2022-12-29T15:40:23;2.43;;;1.23;;